createdAt,value
2022-12-11T00:00:31.749Z,11.77
2022-12-11T00:03:10.287Z,10.00
2022-12-11T00:05:43.030Z,11.07
2022-12-11T00:08:11.145Z,11.60
2022-12-11T00:10:39.248Z,10.87
2022-12-11T00:13:07.266Z,10.63
2022-12-11T00:15:35.370Z,10.57
2022-12-11T00:18:03.409Z,10.13
2022-12-11T00:20:32.833Z,11.77
2022-12-11T00:23:00.915Z,11.80
2022-12-11T00:25:29.047Z,10.40
2022-12-11T00:27:57.056Z,11.27
2022-12-11T00:30:25.154Z,11.10
2022-12-11T00:32:53.240Z,10.73
2022-12-11T00:35:21.496Z,11.20
2022-12-11T00:37:50.930Z,10.13
2022-12-11T00:40:19.160Z,10.73
2022-12-11T00:42:47.181Z,11.07
2022-12-11T00:45:15.620Z,11.10
2022-12-11T00:47:43.723Z,11.10
2022-12-11T00:50:12.028Z,11.10
2022-12-11T00:52:40.719Z,11.77
2022-12-11T00:55:11.755Z,10.87
2022-12-11T00:57:39.991Z,11.20
2022-12-11T01:00:09.242Z,10.63
2022-12-11T01:02:37.299Z,10.87
2022-12-11T01:05:05.978Z,11.27
2022-12-11T01:07:34.223Z,10.80
2022-12-11T01:10:21.903Z,11.50
2022-12-11T01:12:54.118Z,10.30
2022-12-11T01:15:22.999Z,10.27
2022-12-11T01:17:51.089Z,10.20
2022-12-11T01:20:19.389Z,11.87
2022-12-11T01:22:47.477Z,11.13
2022-12-11T01:25:15.602Z,11.20
2022-12-11T01:27:43.635Z,11.43
2022-12-11T01:30:14.425Z,10.80
2022-12-11T01:32:42.549Z,10.63
2022-12-11T01:35:12.430Z,10.63
2022-12-11T01:37:40.790Z,11.10
2022-12-11T01:40:09.861Z,10.83
2022-12-11T01:42:37.972Z,11.10
2022-12-11T01:45:30.388Z,11.60
2022-12-11T01:48:01.729Z,11.87
2022-12-11T01:50:29.994Z,12.10
2022-12-11T01:52:58.056Z,11.87
2022-12-11T01:55:26.296Z,12.30
2022-12-11T01:57:54.389Z,10.60
2022-12-11T02:00:23.845Z,11.53
2022-12-11T02:02:52.133Z,10.53
2022-12-11T02:05:20.299Z,11.70
2022-12-11T02:07:51.111Z,12.67
2022-12-11T02:10:19.311Z,11.87
2022-12-11T02:12:56.678Z,11.87
2022-12-11T02:15:31.513Z,11.90
2022-12-11T02:18:04.609Z,11.70
2022-12-11T02:20:34.500Z,11.97
2022-12-11T02:23:23.193Z,11.87
2022-12-11T02:25:54.126Z,11.63
2022-12-11T02:28:25.354Z,11.63
2022-12-11T02:30:56.534Z,10.43
2022-12-11T02:33:27.698Z,10.97
2022-12-11T02:35:55.727Z,12.77
2022-12-11T02:38:25.316Z,11.37
2022-12-11T02:40:53.530Z,12.10
2022-12-11T02:43:23.451Z,12.10
2022-12-11T02:45:51.734Z,12.00
2022-12-11T02:48:19.866Z,12.50
2022-12-11T02:50:49.111Z,12.70
2022-12-11T02:53:18.274Z,11.30
2022-12-11T02:55:46.687Z,10.90
2022-12-11T02:58:15.747Z,12.77
2022-12-11T03:00:45.330Z,11.50
2022-12-11T03:03:16.383Z,11.43
2022-12-11T03:05:46.204Z,12.23
2022-12-11T03:08:18.684Z,12.53
2022-12-11T03:10:47.080Z,13.27
2022-12-11T03:13:15.883Z,11.67
2022-12-11T03:15:49.454Z,12.33
2022-12-11T03:18:20.199Z,12.87
2022-12-11T03:20:51.007Z,11.10
2022-12-11T03:23:24.631Z,12.53
2022-12-11T03:25:55.648Z,13.07
2022-12-11T03:28:27.496Z,12.10
2022-12-11T03:31:12.321Z,13.17
2022-12-11T03:33:41.484Z,12.87
2022-12-11T03:36:11.462Z,11.87
2022-12-11T03:38:42.732Z,11.07
2022-12-11T03:41:10.853Z,11.30
2022-12-11T03:43:38.916Z,12.33
2022-12-11T03:46:08.681Z,13.10
2022-12-11T03:48:40.639Z,11.10
2022-12-11T03:51:09.253Z,12.47
2022-12-11T03:53:37.546Z,11.73
2022-12-11T03:56:06.063Z,13.10
2022-12-11T03:58:34.178Z,11.00
2022-12-11T04:01:02.468Z,11.00
2022-12-11T04:03:31.884Z,11.57
2022-12-11T04:06:03.080Z,11.17
2022-12-11T04:08:31.157Z,12.43
2022-12-11T04:11:13.078Z,13.83
2022-12-11T04:13:41.357Z,12.30
2022-12-11T04:16:08.519Z,11.97
2022-12-11T04:18:55.608Z,12.03
2022-12-11T04:21:55.790Z,11.83
2022-12-11T04:24:29.645Z,11.90
2022-12-11T04:26:57.673Z,10.87
2022-12-11T04:29:25.825Z,12.03
2022-12-11T04:31:53.956Z,11.93
2022-12-11T04:34:23.426Z,11.70
2022-12-11T04:36:51.768Z,11.97
2022-12-11T04:39:19.834Z,12.77
2022-12-11T04:41:47.883Z,11.53
2022-12-11T04:44:29.834Z,11.73
2022-12-11T04:46:57.952Z,11.90
2022-12-11T04:49:27.384Z,10.87
2022-12-11T04:51:55.436Z,10.70
2022-12-11T04:54:23.513Z,11.93
2022-12-11T04:56:51.600Z,11.10
2022-12-11T04:59:19.683Z,11.80
2022-12-11T05:01:55.918Z,12.07
2022-12-11T05:04:23.992Z,10.60
2022-12-11T05:06:53.678Z,10.80
2022-12-11T05:09:21.896Z,11.40
2022-12-11T05:11:49.969Z,11.23
2022-12-11T05:14:18.013Z,11.70
2022-12-11T05:16:46.064Z,10.20
2022-12-11T05:19:16.417Z,9.97
2022-12-11T05:21:44.540Z,10.20
2022-12-11T05:24:19.822Z,10.60
2022-12-11T05:26:53.828Z,9.93
2022-12-11T05:29:24.743Z,8.70
2022-12-11T05:31:54.914Z,9.73
2022-12-11T05:34:22.993Z,9.17
2022-12-11T05:36:51.091Z,8.80
2022-12-11T05:39:20.949Z,8.90
2022-12-11T05:41:49.010Z,8.47
2022-12-11T05:44:17.039Z,8.67
2022-12-11T05:46:45.200Z,8.23
2022-12-11T05:49:13.271Z,8.27
2022-12-11T05:51:41.606Z,7.67
2022-12-11T05:54:10.576Z,8.17
2022-12-11T05:56:42.779Z,7.60
2022-12-11T05:59:10.884Z,8.20
2022-12-11T06:01:40.007Z,8.00
2022-12-11T06:04:08.661Z,7.50
2022-12-11T06:06:36.833Z,7.67
2022-12-11T06:09:05.308Z,8.20
2022-12-11T06:11:34.061Z,7.60
2022-12-11T06:14:11.170Z,7.70
2022-12-11T06:16:45.197Z,6.87
2022-12-11T06:19:15.890Z,7.07
2022-12-11T06:21:44.049Z,7.17
2022-12-11T06:24:12.240Z,7.60
2022-12-11T06:26:40.382Z,7.17
2022-12-11T06:29:12.942Z,7.40
2022-12-11T06:31:41.387Z,6.40
2022-12-11T06:34:10.075Z,6.50
2022-12-11T06:36:38.159Z,5.80
2022-12-11T06:39:06.213Z,7.10
2022-12-11T06:41:34.338Z,6.50
2022-12-11T06:44:06.003Z,6.27
2022-12-11T06:46:35.747Z,6.40
2022-12-11T06:49:06.587Z,6.37
2022-12-11T06:51:34.641Z,5.93
2022-12-11T06:54:02.661Z,6.23
2022-12-11T06:56:30.764Z,6.33
2022-12-11T06:59:07.779Z,6.30
2022-12-11T07:01:37.378Z,6.37
2022-12-11T07:04:05.482Z,6.47
2022-12-11T07:06:36.678Z,6.70
2022-12-11T07:09:05.208Z,5.40
2022-12-11T07:11:33.326Z,6.30
2022-12-11T07:14:01.667Z,6.40
2022-12-11T07:16:29.813Z,5.90
2022-12-11T07:18:59.287Z,5.63
2022-12-11T07:21:27.335Z,6.10
2022-12-11T07:23:58.783Z,6.23
2022-12-11T07:26:26.872Z,6.00
2022-12-11T07:28:57.460Z,5.67
2022-12-11T07:31:26.523Z,5.50
2022-12-11T07:33:55.364Z,5.87
2022-12-11T07:36:24.862Z,5.90
2022-12-11T07:38:53.029Z,5.70
2022-12-11T07:41:27.784Z,6.43
2022-12-11T07:43:55.838Z,5.30
2022-12-11T07:46:25.809Z,5.50
2022-12-11T07:48:53.986Z,5.33
2022-12-11T07:51:26.529Z,5.70
2022-12-11T07:53:55.650Z,5.87
2022-12-11T07:56:23.757Z,5.60
2022-12-11T07:58:51.874Z,6.10
2022-12-11T08:01:21.446Z,5.77
2022-12-11T08:03:50.726Z,5.53
2022-12-11T08:06:18.825Z,5.40
2022-12-11T08:08:48.356Z,5.80
2022-12-11T08:11:16.410Z,5.80
2022-12-11T08:13:44.529Z,6.10
2022-12-11T08:16:14.611Z,5.70
2022-12-11T08:18:44.150Z,5.53
2022-12-11T08:21:13.257Z,5.60
2022-12-11T08:23:41.356Z,5.57
2022-12-11T08:26:12.416Z,5.77
2022-12-11T08:28:40.518Z,5.73
2022-12-11T08:31:09.764Z,5.27
2022-12-11T08:33:38.091Z,4.83
2022-12-11T08:36:10.350Z,5.40
2022-12-11T08:38:38.485Z,6.20
2022-12-11T08:41:11.578Z,5.37
2022-12-11T08:43:39.860Z,5.97
2022-12-11T08:46:08.314Z,5.60
2022-12-11T08:48:36.689Z,5.87
2022-12-11T08:51:05.933Z,6.00
2022-12-11T08:53:34.267Z,5.00
2022-12-11T08:56:11.569Z,6.37
2022-12-11T08:58:40.973Z,5.63
2022-12-11T09:01:10.074Z,6.53
2022-12-11T09:03:38.265Z,5.10
2022-12-11T09:06:07.299Z,5.73
2022-12-11T09:08:35.531Z,5.50
2022-12-11T09:11:07.584Z,5.90
2022-12-11T09:13:35.619Z,5.10
2022-12-11T09:16:09.334Z,5.90
2022-12-11T09:18:37.636Z,6.23
2022-12-11T09:21:06.956Z,6.00
2022-12-11T09:23:35.061Z,5.93
2022-12-11T09:26:05.535Z,9.60
2022-12-11T09:28:33.690Z,9.00
2022-12-11T09:31:01.968Z,20.73
2022-12-11T09:33:31.622Z,13.00
2022-12-11T09:36:00.386Z,13.30
2022-12-11T09:38:28.486Z,14.67
2022-12-11T09:40:59.582Z,13.90
2022-12-11T09:43:34.101Z,13.30
2022-12-11T09:46:02.579Z,15.63
2022-12-11T09:48:32.407Z,17.07
2022-12-11T09:51:00.689Z,16.50
2022-12-11T09:53:34.297Z,17.47
2022-12-11T09:56:06.290Z,15.50
2022-12-11T09:58:38.078Z,15.70
2022-12-11T10:01:16.329Z,14.30
2022-12-11T10:04:03.919Z,15.77
2022-12-11T10:06:34.535Z,15.07
2022-12-11T10:09:10.032Z,14.80
2022-12-11T10:11:57.232Z,16.43
2022-12-11T10:14:30.258Z,16.87
2022-12-11T10:17:01.080Z,16.33
2022-12-11T10:19:31.061Z,15.47
2022-12-11T10:21:59.218Z,16.73
2022-12-11T10:25:07.734Z,16.57
2022-12-11T10:27:21.265Z,16.47
2022-12-11T10:29:57.352Z,16.47
2022-12-11T10:32:26.344Z,16.87
2022-12-11T10:35:01.758Z,16.63
2022-12-11T10:37:29.853Z,16.80
2022-12-11T10:39:58.108Z,17.70
2022-12-11T10:42:26.230Z,38.47
2022-12-11T10:45:01.367Z,27.53
2022-12-11T10:47:29.856Z,24.40
2022-12-11T10:50:00.514Z,23.27
2022-12-11T10:52:31.661Z,22.57
2022-12-11T10:55:01.704Z,20.63
2022-12-11T10:57:31.670Z,17.90
2022-12-11T10:59:59.772Z,20.00
2022-12-11T11:02:29.402Z,17.33
2022-12-11T11:04:59.732Z,18.93
2022-12-11T11:07:28.410Z,18.80
2022-12-11T11:10:07.678Z,16.63
2022-12-11T11:12:39.153Z,16.07
2022-12-11T11:15:18.801Z,18.20
2022-12-11T11:17:54.610Z,18.70
2022-12-11T11:20:25.833Z,17.90
2022-12-11T11:22:55.141Z,17.27
2022-12-11T11:25:23.814Z,17.27
2022-12-11T11:27:53.159Z,17.90
2022-12-11T11:30:23.412Z,16.90
2022-12-11T11:32:55.905Z,17.47
2022-12-11T11:35:26.652Z,17.47
2022-12-11T11:38:05.632Z,18.00
2022-12-11T11:40:37.458Z,16.00
2022-12-11T11:43:08.621Z,15.20
2022-12-11T11:45:40.861Z,16.57
2022-12-11T11:48:25.699Z,16.23
2022-12-11T11:51:06.740Z,14.77
2022-12-11T11:53:37.465Z,14.70
2022-12-11T11:56:08.448Z,14.70
2022-12-11T11:58:40.314Z,14.40
2022-12-11T12:01:13.602Z,14.80
2022-12-11T12:03:41.767Z,13.53
2022-12-11T12:06:15.267Z,15.83
2022-12-11T12:08:51.162Z,13.63
2022-12-11T12:11:38.642Z,14.10
2022-12-11T12:14:43.654Z,14.00
2022-12-11T12:17:07.664Z,14.60
2022-12-11T12:19:44.401Z,13.30
2022-12-11T12:22:25.689Z,13.90
2022-12-11T12:24:58.976Z,12.70
2022-12-11T12:27:51.670Z,13.10
2022-12-11T12:30:23.037Z,13.87
2022-12-11T12:32:59.534Z,13.20
2022-12-11T12:35:34.653Z,14.30
2022-12-11T12:38:07.647Z,14.07
2022-12-11T12:40:37.272Z,13.00
2022-12-11T12:43:07.712Z,13.03
2022-12-11T12:45:38.391Z,13.13
2022-12-11T12:48:10.435Z,12.03
2022-12-11T12:50:39.709Z,11.60
2022-12-11T12:53:09.147Z,11.13
2022-12-11T12:55:37.214Z,11.03
2022-12-11T12:58:06.435Z,10.57
2022-12-11T13:00:35.370Z,9.90
2022-12-11T13:03:04.294Z,9.50
2022-12-11T13:05:36.618Z,9.47
2022-12-11T13:08:06.102Z,8.67
2022-12-11T13:10:36.406Z,9.13
2022-12-11T13:13:05.484Z,8.97
2022-12-11T13:15:35.980Z,8.10
2022-12-11T13:18:05.461Z,9.23
2022-12-11T13:20:34.239Z,7.73
2022-12-11T13:23:18.153Z,8.10
2022-12-11T13:25:57.591Z,7.23
2022-12-11T13:28:30.134Z,8.27
2022-12-11T13:31:25.166Z,8.07
2022-12-11T13:33:54.476Z,7.30
2022-12-11T13:36:31.396Z,7.50
2022-12-11T13:39:02.326Z,7.77
2022-12-11T13:41:31.872Z,7.50
2022-12-11T13:44:00.032Z,7.20
2022-12-11T13:46:29.441Z,6.97
2022-12-11T13:49:07.245Z,6.63
2022-12-11T13:51:37.148Z,6.73
2022-12-11T13:54:17.387Z,6.17
2022-12-11T13:56:57.071Z,6.30
2022-12-11T13:59:27.420Z,6.37
2022-12-11T14:01:57.055Z,5.80
2022-12-11T14:04:25.201Z,6.50
2022-12-11T14:06:57.071Z,6.90
2022-12-11T14:09:26.401Z,6.10
2022-12-11T14:11:57.317Z,6.90
2022-12-11T14:14:27.561Z,6.67
2022-12-11T14:16:55.701Z,6.60
2022-12-11T14:19:24.882Z,6.00
2022-12-11T14:22:02.684Z,7.00
2022-12-11T14:24:32.216Z,6.43
2022-12-11T14:27:01.708Z,6.33
2022-12-11T14:29:30.949Z,5.53
2022-12-11T14:32:09.827Z,6.23
2022-12-11T14:34:40.044Z,5.40
2022-12-11T14:37:10.681Z,6.30
2022-12-11T14:39:40.619Z,5.70
2022-12-11T14:42:16.240Z,6.10
2022-12-11T14:44:48.953Z,5.87
2022-12-11T14:47:17.985Z,5.80
2022-12-11T14:49:50.738Z,6.97
2022-12-11T14:52:20.108Z,5.57
2022-12-11T14:54:52.737Z,5.90
2022-12-11T14:57:26.036Z,6.07
2022-12-11T14:59:57.285Z,5.80
2022-12-11T15:02:28.538Z,5.87
2022-12-11T15:05:13.866Z,5.87
2022-12-11T15:07:56.885Z,5.60
2022-12-11T15:10:35.537Z,5.90
2022-12-11T15:13:05.254Z,6.63
2022-12-11T15:15:34.592Z,9.83
2022-12-11T15:18:04.826Z,9.87
2022-12-11T15:20:32.888Z,15.50
2022-12-11T15:23:02.616Z,17.27
2022-12-11T15:25:32.618Z,8.90
2022-12-11T15:28:01.256Z,9.90
2022-12-11T15:30:33.303Z,8.80
2022-12-11T15:33:06.456Z,10.80
2022-12-11T15:35:34.566Z,10.03
2022-12-11T15:38:05.192Z,10.10
2022-12-11T15:40:39.792Z,11.03
2022-12-11T15:43:07.890Z,18.13
2022-12-11T15:45:37.336Z,14.87
2022-12-11T15:48:05.755Z,13.70
2022-12-11T15:50:33.889Z,13.47
2022-12-11T15:53:01.942Z,12.67
2022-12-11T15:55:34.276Z,12.40
2022-12-11T15:58:03.798Z,12.80
2022-12-11T16:00:53.235Z,14.03
2022-12-11T16:03:38.208Z,12.00
2022-12-11T16:06:07.047Z,12.10
2022-12-11T16:08:42.670Z,13.40
2022-12-11T16:11:16.764Z,11.97
2022-12-11T16:13:44.799Z,46.00
2022-12-11T16:16:13.080Z,17.70
2022-12-11T16:18:42.604Z,14.30
2022-12-11T16:21:28.566Z,13.10
2022-12-11T16:23:57.150Z,14.60
2022-12-11T16:26:28.377Z,13.60
2022-12-11T16:28:56.425Z,13.03
2022-12-11T16:31:24.530Z,12.47
2022-12-11T16:33:54.048Z,12.17
2022-12-11T16:36:22.113Z,13.30
2022-12-11T16:38:53.830Z,12.97
2022-12-11T16:41:22.903Z,13.67
2022-12-11T16:43:51.105Z,11.43
2022-12-11T16:46:19.478Z,11.70
2022-12-11T16:48:51.042Z,11.63
2022-12-11T16:51:20.801Z,10.57
2022-12-11T16:53:48.869Z,10.17
2022-12-11T16:56:16.918Z,10.93
2022-12-11T16:59:01.161Z,9.97
2022-12-11T17:01:32.317Z,10.03
2022-12-11T17:04:00.558Z,10.57
2022-12-11T17:06:30.260Z,9.63
2022-12-11T17:08:58.295Z,9.80
2022-12-11T17:11:26.343Z,10.87
2022-12-11T17:13:55.099Z,11.13
2022-12-11T17:16:24.941Z,10.10
2022-12-11T17:18:53.084Z,10.20
2022-12-11T17:21:22.238Z,9.57
2022-12-11T17:23:51.737Z,9.43
2022-12-11T17:26:20.269Z,9.70
2022-12-11T17:28:48.362Z,8.73
2022-12-11T17:31:18.144Z,8.33
2022-12-11T17:33:46.365Z,8.50
2022-12-11T17:36:18.282Z,8.40
2022-12-11T17:38:49.529Z,8.73
2022-12-11T17:41:20.966Z,8.30
2022-12-11T17:43:49.474Z,8.40
2022-12-11T17:46:18.155Z,9.07
2022-12-11T17:48:46.360Z,9.00
2022-12-11T17:51:20.953Z,9.53
2022-12-11T17:53:49.057Z,8.67
2022-12-11T17:56:20.745Z,8.87
2022-12-11T17:58:48.849Z,8.77
2022-12-11T18:01:17.083Z,7.80
2022-12-11T18:03:45.297Z,8.33
2022-12-11T18:06:15.081Z,7.40
2022-12-11T18:08:43.397Z,7.93
2022-12-11T18:11:12.318Z,7.80
2022-12-11T18:13:49.120Z,7.30
2022-12-11T18:16:33.077Z,8.03
2022-12-11T18:19:08.375Z,7.80
2022-12-11T18:21:40.413Z,8.40
2022-12-11T18:24:10.140Z,7.60
2022-12-11T18:26:38.690Z,8.17
2022-12-11T18:29:08.117Z,8.50
2022-12-11T18:31:42.019Z,7.50
2022-12-11T18:34:11.535Z,8.33
2022-12-11T18:36:41.160Z,7.83
2022-12-11T18:39:11.329Z,8.40
2022-12-11T18:41:39.985Z,8.63
2022-12-11T18:44:10.144Z,8.60
2022-12-11T18:46:39.621Z,8.40
2022-12-11T18:49:07.840Z,8.40
2022-12-11T18:51:35.970Z,8.47
2022-12-11T18:54:04.053Z,8.90
2022-12-11T18:56:32.133Z,8.77
2022-12-11T18:59:02.807Z,8.10
2022-12-11T19:01:33.103Z,8.53
2022-12-11T19:04:05.389Z,9.63
2022-12-11T19:06:36.114Z,9.27
2022-12-11T19:09:04.725Z,8.97
2022-12-11T19:11:33.044Z,8.83
2022-12-11T19:14:01.175Z,9.30
2022-12-11T19:16:35.866Z,9.20
2022-12-11T19:19:05.103Z,8.73
2022-12-11T19:21:35.562Z,9.47
2022-12-11T19:24:10.784Z,9.20
2022-12-11T19:26:39.055Z,10.03
2022-12-11T19:29:07.207Z,8.90
2022-12-11T19:31:36.665Z,9.80
2022-12-11T19:34:07.958Z,9.80
2022-12-11T19:36:37.199Z,9.10
2022-12-11T19:39:11.348Z,9.70
2022-12-11T19:41:41.138Z,9.67
2022-12-11T19:44:09.456Z,9.43
2022-12-11T19:46:38.950Z,9.80
2022-12-11T19:49:07.188Z,10.33
2022-12-11T19:51:40.821Z,9.13
2022-12-11T19:54:09.575Z,10.03
2022-12-11T19:56:38.120Z,9.80
2022-12-11T19:59:07.049Z,10.63
2022-12-11T20:01:36.287Z,9.30
2022-12-11T20:04:06.862Z,9.87
2022-12-11T20:06:35.782Z,9.90
2022-12-11T20:09:04.076Z,9.87
2022-12-11T20:11:33.037Z,10.03
2022-12-11T20:14:01.140Z,10.40
2022-12-11T20:16:53.827Z,10.67
2022-12-11T20:19:18.752Z,9.40
2022-12-11T20:21:46.832Z,9.83
2022-12-11T20:24:14.909Z,10.53
2022-12-11T20:26:43.047Z,10.00
2022-12-11T20:29:14.408Z,10.10
2022-12-11T20:31:42.939Z,10.27
2022-12-11T20:34:11.588Z,10.57
2022-12-11T20:36:40.989Z,10.20
2022-12-11T20:39:09.049Z,10.53
2022-12-11T20:41:37.173Z,10.33
2022-12-11T20:44:05.304Z,10.73
2022-12-11T20:46:33.354Z,10.80
2022-12-11T20:49:10.468Z,10.97
2022-12-11T20:51:39.949Z,11.43
2022-12-11T20:54:08.006Z,10.50
2022-12-11T20:56:36.173Z,10.87
2022-12-11T20:59:04.220Z,11.63
2022-12-11T21:01:33.105Z,11.10
2022-12-11T21:04:01.268Z,11.40
2022-12-11T21:06:31.558Z,10.60
2022-12-11T21:09:01.568Z,11.33
2022-12-11T21:11:29.714Z,10.87
2022-12-11T21:13:58.124Z,11.97
2022-12-11T21:16:26.272Z,10.77
2022-12-11T21:18:54.342Z,10.27
2022-12-11T21:21:22.363Z,11.20
2022-12-11T21:23:50.461Z,11.20
2022-12-11T21:26:19.856Z,10.67
2022-12-11T21:28:47.976Z,10.37
2022-12-11T21:31:17.366Z,11.47
2022-12-11T21:33:45.671Z,11.53
2022-12-11T21:36:14.168Z,10.80
2022-12-11T21:38:43.347Z,11.33
2022-12-11T21:41:13.616Z,11.27
2022-12-11T21:44:40.947Z,12.03
2022-12-11T21:46:34.432Z,11.40
2022-12-11T21:49:02.549Z,10.60
2022-12-11T21:51:36.503Z,10.97
2022-12-11T21:54:06.329Z,10.80
2022-12-11T21:56:34.425Z,10.43
2022-12-11T21:59:03.961Z,11.60
2022-12-11T22:01:33.587Z,11.43
2022-12-11T22:04:01.801Z,11.00
2022-12-11T22:06:29.926Z,11.30
2022-12-11T22:08:58.403Z,10.37
2022-12-11T22:11:30.668Z,11.60
2022-12-11T22:13:58.954Z,11.57
2022-12-11T22:16:28.417Z,11.87
2022-12-11T22:18:56.475Z,11.40
2022-12-11T22:21:24.573Z,10.60
2022-12-11T22:23:52.712Z,10.37
2022-12-11T22:26:23.811Z,10.83
2022-12-11T22:28:52.083Z,10.10
2022-12-11T22:31:21.355Z,11.57
2022-12-11T22:33:55.052Z,11.30
2022-12-11T22:36:23.244Z,11.93
2022-12-11T22:38:51.355Z,11.63
2022-12-11T22:41:23.374Z,12.47
2022-12-11T22:43:51.439Z,11.73
2022-12-11T22:46:19.864Z,11.43
2022-12-11T22:48:48.038Z,11.10
2022-12-11T22:51:17.475Z,12.63
2022-12-11T22:53:45.785Z,11.40
2022-12-11T22:56:14.022Z,12.77
2022-12-11T22:58:48.468Z,11.10
2022-12-11T23:01:18.812Z,11.53
2022-12-11T23:03:46.962Z,12.47
2022-12-11T23:06:17.677Z,12.63
2022-12-11T23:08:45.969Z,12.03
2022-12-11T23:11:14.408Z,12.17
2022-12-11T23:13:42.580Z,12.30
2022-12-11T23:16:10.951Z,12.10
2022-12-11T23:18:39.441Z,11.10
2022-12-11T23:21:13.841Z,11.70
2022-12-11T23:23:43.289Z,12.00
2022-12-11T23:26:12.236Z,13.10
2022-12-11T23:28:40.566Z,11.80
2022-12-11T23:31:08.935Z,12.00
2022-12-11T23:33:37.123Z,11.03
2022-12-11T23:36:05.534Z,11.67
2022-12-11T23:38:33.613Z,12.73
2022-12-11T23:41:03.220Z,12.47
2022-12-11T23:43:31.326Z,11.83
2022-12-11T23:45:59.464Z,11.80
2022-12-11T23:48:27.543Z,11.03
2022-12-11T23:50:59.526Z,10.93
2022-12-11T23:53:27.698Z,11.57
2022-12-11T23:55:55.842Z,11.67
2022-12-11T23:58:25.261Z,12.13
